Flight Track Log - Related Links

Times and Time Zones

All times are in EDT time to prevent confusion due to time zone crossing. See the SWA2336 flight status page for this flight to view local times or setup timezone preferences in your user account.

Time Position Orientation Groundspeed Altitude Reporting Facility
EDT Latitude Longitude Course Direction KTS MPH feet Rate Location/Type
Sun 01:17:38 PM 30.1492 -97.6569 111° Southeast 162 186 2,400  Level Houston Center
Sun 01:18:40 PM 30.1325 -97.6058 111° Southeast 238 274 4,800 2,419 Climbing Houston Center
Sun 01:19:42 PM 30.1906 -97.5444 42° Northeast 277 319 7,400 2,758 Climbing Houston Center
Sun 01:20:44 PM 30.2781 -97.4925 27° Northeast 298 343 10,500 2,565 Climbing Houston Center
Sun 01:21:46 PM 30.3661 -97.4308 31° Northeast 361 415 12,700 2,468 Climbing Houston Center
Sun 01:22:48 PM 30.4536 -97.3633 34° Northeast 374 430 15,600 2,565 Climbing Houston Center
Sun 01:23:50 PM 30.5328 -97.2744 44° Northeast 391 450 18,000 2,160 Climbing Houston Center
Sun 01:24:53 PM 30.6150 -97.1828 44° Northeast 404 465 20,100 1,920 Climbing Houston Center
Sun 01:25:55 PM 30.7161 -97.0692 44° Northeast 430 495 22,000 919 Climbing Houston Center
Sun 01:26:57 PM 30.8058 -96.9692 44° Northeast 445 512 22,000  Level Houston Center
Sun 01:27:59 PM 30.8942 -96.8725 43° Northeast 438 504 22,000  Level Houston Center
Sun 01:29:01 PM 30.9814 -96.7722 45° Northeast 438 504 22,000  Level Houston Center
Sun 01:30:03 PM 31.0689 -96.6753 43° Northeast 434 499 22,000  Level Houston Center
Sun 01:31:05 PM 31.1581 -96.5778 43° Northeast 437 503 22,000  Level Houston Center
Sun 01:32:07 PM 31.2886 -96.5261 19° North 423 487 22,000  Level Houston Center
Sun 01:33:09 PM 31.4003 -96.4869 17° North 416 479 22,000  Level Houston Center
Sun 01:34:11 PM 31.5133 -96.4483 16° North 420 483 22,000  Level Houston Center
Sun 01:35:14 PM 31.6256 -96.4106 16° North 417 480 22,000  Level Houston Center
Sun 01:35:33 PM 31.6686 -96.3981 14° North 410 472 22,000  Level Fort Worth Center
Sun 01:36:32 PM 31.7664 -96.3628 17° North 410 472 22,000 -450 Level Fort Worth Center
Sun 01:37:33 PM 31.8808 -96.3222 17° North 417 480 21,100 -1,550 Descending Fort Worth Center
Sun 01:38:32 PM 31.9933 -96.2817 17° North 417 480 18,900 -2,250 Descending Fort Worth Center
Sun 01:39:33 PM 32.0931 -96.2511 15° North 389 448 16,600 -2,557 Descending Fort Worth Center
Sun 01:40:34 PM 32.1953 -96.2278 11° North 375 432 13,700 -3,076 Descending Fort Worth Center
Sun 01:41:32 PM 32.2939 -96.2853 334° Northwest 341 392 10,500 -1,866 Descending Fort Worth Center
Sun 01:42:33 PM 32.3717 -96.3336 332° Northwest 353 406 10,000 -750 Descending Fort Worth Center
Sun 01:43:32 PM 32.4492 -96.3794 333° Northwest 298 343 9,000 -600 Descending Fort Worth Center
Sun 01:44:33 PM 32.5183 -96.4206 333° Northwest 282 325 8,800 -590 Descending Fort Worth Center
Sun 01:45:34 PM 32.5875 -96.4617 333° Northwest 282 325 7,800 -958 Descending Fort Worth Center
Sun 01:46:32 PM 32.6611 -96.5078 332° Northwest 292 336 6,900 -1,322 Descending Fort Worth Center
Sun 01:47:32 PM 32.7261 -96.5614 325° Northwest 287 330 5,200 -950 Descending Fort Worth Center
Sun 01:48:32 PM 32.7869 -96.6153 323° Northwest 287 330 5,000 -248 Descending Fort Worth Center
Sun 01:49:33 PM 32.8436 -96.6692 321° Northwest 282 325 4,700 -830 Descending Fort Worth Center
Sun 01:50:06 PM 32.8833 -96.7167 315° West 274 315 3,700 -1,241 Descending Dallas / Fort Worth TRACON
Sun 01:51:00 PM 32.9333 -96.7667 320° Northwest 280 322 2,900 -417 Descending Dallas / Fort Worth TRACON
Sun 01:52:01 PM 32.9667 -96.8500 296° West 235 270 2,900 -496 Level Dallas / Fort Worth TRACON
Sun 01:53:01 PM 32.9667 -96.9167 270° West 220 253 1,900 -474 Descending Dallas / Fort Worth TRACON
Sun 01:53:55 PM 32.9167 -96.9167 180° South 163 188 2,000 -316 Climbing Dallas / Fort Worth TRACON
Sun 01:54:55 PM 32.8833 -96.9000 157° South 120 138 1,300 -579 Descending Dallas / Fort Worth TRACON
Sun 01:55:49 PM 32.8667 -96.8833 140° Southeast 119 137 900 -444 Descending Dallas / Fort Worth TRACON
Sun 01:57:00 PM 32.8471 -96.8518 209° Southwest  Level Estimated
Sun 02:04:00 PM 32.8471 -96.8518 209° Southwest  Level Estimated

Login

Don't have an account? Register now (free) for customized features, flight alerts, and more!